Terminal Aerodrome Forecast
Issued by NWS Cleveland, OH

Home | Current Version | Previous Version | Graphics & Text | Print | Product List | Glossary On
Versions: 1 2 3 4 5 6 7 8 9 10 11 12 13 14 15 16 17 18 19 20 21
000
FTUS41 KCLE 212300
TAFCAK
TAF
KCAK 212340Z 2200/2224 23008KT P6SM SCT080 OVC150
     FM220700 22006KT P6SM -SHRA BKN035 OVC050
      TEMPO 2207/2211 5SM -SHRA OVC012
     FM221100 27012KT P6SM OVC008
     FM221400 30012G20KT P6SM OVC012
     FM221700 32018G25KT P6SM SCT030=

USA.gov is the U.S. government's official web portal to all federal, state and local government web resources and services.